createdAt,value
2022-10-28T00:01:23.187Z,89.23
2022-10-28T00:03:56.460Z,89.00
2022-10-28T00:06:26.359Z,89.17
2022-10-28T00:08:54.202Z,89.02
2022-10-28T00:11:24.132Z,88.62
2022-10-28T00:13:54.078Z,88.97
2022-10-28T00:16:24.645Z,88.83
2022-10-28T00:18:54.160Z,88.44
2022-10-28T00:21:24.551Z,88.61
2022-10-28T00:23:52.180Z,88.21
2022-10-28T00:26:25.227Z,88.49
2022-10-28T00:28:55.609Z,88.94
2022-10-28T00:31:24.793Z,89.28
2022-10-28T00:33:52.102Z,88.88
2022-10-28T00:36:29.351Z,88.87
2022-10-28T00:38:57.456Z,88.53
2022-10-28T00:41:30.501Z,88.23
2022-10-28T00:44:00.629Z,88.06
2022-10-28T00:46:53.898Z,88.55
2022-10-28T00:49:25.372Z,88.63
2022-10-28T00:52:16.318Z,88.87
2022-10-28T00:54:44.464Z,88.53
2022-10-28T00:57:16.318Z,88.87
2022-10-28T00:59:49.874Z,88.74
2022-10-28T01:02:17.744Z,89.13
2022-10-28T01:04:46.770Z,88.76
2022-10-28T01:07:15.171Z,88.74
2022-10-28T01:09:42.529Z,88.86
2022-10-28T01:12:15.511Z,88.99
2022-10-28T01:14:49.000Z,88.67
2022-10-28T01:17:23.604Z,88.74
2022-10-28T01:20:21.754Z,88.76
2022-10-28T01:23:04.162Z,88.60
2022-10-28T01:25:50.111Z,88.60
2022-10-28T01:28:38.519Z,88.85
2022-10-28T01:31:27.144Z,89.29
2022-10-28T01:34:12.673Z,89.41
2022-10-28T01:36:56.346Z,89.59
2022-10-28T01:39:35.715Z,89.55
2022-10-28T01:42:33.672Z,89.48
2022-10-28T01:45:16.404Z,89.74
2022-10-28T01:47:46.595Z,89.54
2022-10-28T01:50:24.287Z,89.35
2022-10-28T01:52:56.281Z,89.52
2022-10-28T01:55:27.150Z,89.63
2022-10-28T01:57:57.448Z,89.59
2022-10-28T02:00:24.832Z,89.75
2022-10-28T02:02:52.733Z,89.70
2022-10-28T02:05:46.526Z,90.00
2022-10-28T02:08:34.368Z,90.25
2022-10-28T02:11:01.308Z,90.36
2022-10-28T02:13:38.328Z,90.87
2022-10-28T02:16:45.402Z,90.84
2022-10-28T02:19:43.671Z,90.93
2022-10-28T02:22:22.750Z,90.57
2022-10-28T02:25:18.274Z,90.25
2022-10-28T02:27:55.427Z,90.29
2022-10-28T02:30:43.146Z,90.20
2022-10-28T02:33:16.591Z,90.28
2022-10-28T02:35:53.145Z,90.43
2022-10-28T02:38:26.693Z,89.91
2022-10-28T02:40:59.043Z,90.26
2022-10-28T02:43:28.316Z,90.20
2022-10-28T02:45:59.398Z,89.80
2022-10-28T02:48:35.337Z,89.92
2022-10-28T02:51:46.043Z,88.94
2022-10-28T02:54:17.624Z,88.89
2022-10-28T02:56:53.123Z,88.74
2022-10-28T02:59:20.563Z,89.25
2022-10-28T03:01:48.003Z,89.76
2022-10-28T03:04:15.104Z,90.21
2022-10-28T03:06:42.262Z,89.95
2022-10-28T03:09:09.280Z,89.64
2022-10-28T03:11:36.757Z,89.61
2022-10-28T03:14:03.774Z,89.30
2022-10-28T03:16:31.149Z,89.47
2022-10-28T03:18:58.451Z,89.26
2022-10-28T03:21:25.874Z,90.09
2022-10-28T03:23:52.894Z,90.04
2022-10-28T03:26:20.201Z,89.91
2022-10-28T03:28:47.245Z,89.89
2022-10-28T03:31:15.329Z,89.75
2022-10-28T03:33:42.280Z,90.03
2022-10-28T03:36:09.559Z,90.00
2022-10-28T03:38:37.156Z,89.11
2022-10-28T03:41:04.759Z,89.66
2022-10-28T03:43:31.732Z,89.02
2022-10-28T03:45:59.019Z,89.21
2022-10-28T03:48:26.238Z,89.28
2022-10-28T03:50:54.430Z,89.09
2022-10-28T03:53:24.249Z,89.50
2022-10-28T03:55:58.363Z,89.25
2022-10-28T03:58:26.027Z,89.48
2022-10-28T04:00:55.022Z,89.15
2022-10-28T04:03:23.804Z,89.00
2022-10-28T04:05:51.799Z,88.79
2022-10-28T04:08:20.163Z,88.77
2022-10-28T04:10:49.502Z,88.78
2022-10-28T04:13:19.866Z,88.98
2022-10-28T04:15:47.549Z,89.34
2022-10-28T04:18:14.983Z,89.58
2022-10-28T04:20:43.791Z,89.19
2022-10-28T04:23:16.042Z,89.39
2022-10-28T04:25:45.157Z,89.49
2022-10-28T04:28:12.400Z,89.37
2022-10-28T04:30:39.642Z,89.44
2022-10-28T04:33:07.776Z,89.22
2022-10-28T04:35:35.530Z,89.07
2022-10-28T04:38:02.521Z,89.26
2022-10-28T04:40:29.852Z,89.49
2022-10-28T04:42:56.966Z,89.68
2022-10-28T04:45:24.184Z,89.35
2022-10-28T04:47:57.302Z,89.42
2022-10-28T04:50:34.350Z,90.03
2022-10-28T04:53:02.030Z,89.97
2022-10-28T04:55:31.535Z,90.18
2022-10-28T04:58:03.110Z,90.34
2022-10-28T05:00:54.159Z,90.19
2022-10-28T05:03:22.638Z,90.07
2022-10-28T05:05:59.779Z,90.21
2022-10-28T05:08:29.640Z,90.03
2022-10-28T05:10:57.811Z,89.42
2022-10-28T05:13:25.314Z,89.40
2022-10-28T05:15:52.849Z,89.53
2022-10-28T05:18:21.200Z,90.04
2022-10-28T05:20:56.388Z,89.92
2022-10-28T05:23:27.258Z,89.71
2022-10-28T05:25:57.453Z,89.80
2022-10-28T05:28:25.804Z,90.16
2022-10-28T05:31:02.739Z,90.11
2022-10-28T05:33:30.733Z,90.40
2022-10-28T05:36:02.344Z,91.02
2022-10-28T05:38:29.825Z,90.86
2022-10-28T05:40:57.019Z,90.83
2022-10-28T05:43:25.453Z,90.86
2022-10-28T05:45:57.280Z,91.14
2022-10-28T05:48:35.299Z,90.89
2022-10-28T05:51:03.411Z,90.87
2022-10-28T05:53:36.839Z,90.85
2022-10-28T05:56:04.621Z,90.69
2022-10-28T05:58:33.356Z,90.84
2022-10-28T06:01:02.662Z,90.44
2022-10-28T06:03:32.060Z,90.46
2022-10-28T06:06:00.216Z,90.25
2022-10-28T06:08:29.497Z,90.32
2022-10-28T06:10:55.292Z,90.16
2022-10-28T06:13:25.828Z,90.01
2022-10-28T06:18:40.633Z,90.18
2022-10-28T06:21:07.623Z,90.17
2022-10-28T06:23:42.095Z,89.88
2022-10-28T06:26:10.018Z,89.18
2022-10-28T06:28:40.750Z,89.07
2022-10-28T06:31:09.108Z,89.09
2022-10-28T06:33:36.456Z,89.06
2022-10-28T06:36:04.064Z,89.20
2022-10-28T06:38:31.712Z,88.72
2022-10-28T06:41:00.740Z,88.55
2022-10-28T06:43:30.153Z,88.21
2022-10-28T06:46:02.706Z,87.64
2022-10-28T06:48:36.502Z,87.45
2022-10-28T06:51:12.819Z,87.48
2022-10-28T06:56:28.227Z,87.53
2022-10-28T06:58:57.560Z,87.28
2022-10-28T07:01:29.741Z,87.48
2022-10-28T07:03:59.463Z,87.65
2022-10-28T07:06:26.795Z,87.79
2022-10-28T07:08:53.875Z,87.66
2022-10-28T07:11:21.271Z,87.45
2022-10-28T07:13:49.033Z,86.26
2022-10-28T07:19:00.391Z,84.96
2022-10-28T07:24:18.295Z,83.65
2022-10-28T07:26:53.023Z,83.12
2022-10-28T07:29:22.574Z,83.43
2022-10-28T07:31:54.612Z,82.92
2022-10-28T07:34:26.756Z,82.55
2022-10-28T07:36:55.587Z,82.95
2022-10-28T07:39:30.532Z,82.23
2022-10-28T07:45:11.217Z,80.53
2022-10-28T07:47:41.886Z,80.24
2022-10-28T07:50:23.733Z,79.82
2022-10-28T07:52:53.977Z,79.27
2022-10-28T07:55:21.688Z,78.88
2022-10-28T07:57:49.165Z,77.79
2022-10-28T08:00:16.294Z,78.02
2022-10-28T08:02:43.610Z,77.90
2022-10-28T08:05:10.792Z,77.88
2022-10-28T08:07:42.812Z,77.12
2022-10-28T08:10:09.962Z,77.52
2022-10-28T08:12:37.442Z,77.09
2022-10-28T08:15:05.335Z,76.66
2022-10-28T08:23:02.847Z,76.46
2022-10-28T08:25:32.295Z,76.73
2022-10-28T08:27:59.491Z,75.73
2022-10-28T08:30:26.474Z,76.06
2022-10-28T08:32:56.990Z,76.06
2022-10-28T08:35:24.438Z,75.07
2022-10-28T08:37:55.281Z,73.90
2022-10-28T08:40:32.519Z,73.44
2022-10-28T08:43:10.787Z,73.50
2022-10-28T08:45:47.195Z,73.81
2022-10-28T08:48:38.885Z,73.79
2022-10-28T08:51:21.150Z,73.02
2022-10-28T08:56:50.187Z,72.63
2022-10-28T08:59:37.531Z,71.34
2022-10-28T09:02:26.330Z,71.06
2022-10-28T09:05:05.611Z,70.90
2022-10-28T09:07:37.874Z,70.84
2022-10-28T09:10:08.601Z,69.94
2022-10-28T09:16:37.504Z,69.88
2022-10-28T09:19:35.256Z,67.68
2022-10-28T09:22:47.883Z,65.77
2022-10-28T09:25:29.399Z,66.10
2022-10-28T09:28:25.278Z,66.21
2022-10-28T09:31:05.434Z,66.67
2022-10-28T09:33:46.399Z,66.56
2022-10-28T09:36:31.224Z,66.28
2022-10-28T09:39:01.932Z,65.46
2022-10-28T09:41:36.462Z,64.67
2022-10-28T09:44:36.607Z,64.14
2022-10-28T09:47:13.040Z,63.22
2022-10-28T09:49:43.838Z,62.86
2022-10-28T09:52:16.801Z,61.41
2022-10-28T09:54:53.977Z,60.25
2022-10-28T09:57:24.977Z,56.77
2022-10-28T09:59:52.371Z,57.74
2022-10-28T10:02:30.624Z,55.96
2022-10-28T10:04:59.537Z,54.38
2022-10-28T10:07:43.056Z,53.30
2022-10-28T10:10:25.493Z,53.32
2022-10-28T10:13:16.648Z,52.64
2022-10-28T10:16:02.158Z,52.98
2022-10-28T10:18:37.624Z,51.85
2022-10-28T10:21:06.321Z,52.15
2022-10-28T10:26:17.452Z,51.27
2022-10-28T10:28:47.497Z,51.78
2022-10-28T10:31:27.170Z,51.73
2022-10-28T10:33:57.138Z,51.94
2022-10-28T10:36:29.264Z,52.54
2022-10-28T10:38:58.944Z,52.65
2022-10-28T10:41:33.735Z,51.96
2022-10-28T10:44:01.239Z,51.50
2022-10-28T10:46:28.841Z,49.92
2022-10-28T10:49:15.015Z,49.33
2022-10-28T10:51:53.602Z,48.35
2022-10-28T10:54:21.054Z,48.67
2022-10-28T10:56:51.541Z,48.01
2022-10-28T10:59:33.796Z,48.53
2022-10-28T11:02:05.195Z,48.58
2022-10-28T11:04:37.803Z,48.24
2022-10-28T11:07:06.138Z,47.85
2022-10-28T11:09:38.594Z,47.85
2022-10-28T11:12:37.340Z,47.52
2022-10-28T11:15:17.038Z,47.34
2022-10-28T11:18:01.983Z,47.65
2022-10-28T11:20:50.561Z,48.22
2022-10-28T11:23:18.082Z,47.75
2022-10-28T11:25:50.780Z,47.94
2022-10-28T11:28:51.137Z,48.09
2022-10-28T11:31:55.017Z,47.33
2022-10-28T11:34:58.929Z,47.73
2022-10-28T11:37:50.922Z,47.63
2022-10-28T11:40:46.145Z,47.54
2022-10-28T11:43:23.256Z,47.36
2022-10-28T11:46:03.768Z,46.32
2022-10-28T11:48:49.477Z,45.67
2022-10-28T11:51:28.789Z,45.76
2022-10-28T11:54:35.175Z,46.77
2022-10-28T11:57:24.590Z,46.99
2022-10-28T12:00:14.473Z,47.17
2022-10-28T12:06:18.957Z,47.20
2022-10-28T12:08:56.059Z,47.65
2022-10-28T12:14:39.403Z,46.03
2022-10-28T12:17:17.687Z,47.68
2022-10-28T12:20:09.275Z,47.59
2022-10-28T12:22:51.561Z,48.37
2022-10-28T12:25:25.673Z,48.82
2022-10-28T12:28:08.380Z,49.24
2022-10-28T12:30:41.818Z,50.23
2022-10-28T12:33:34.967Z,50.54
2022-10-28T12:36:04.992Z,51.18
2022-10-28T12:38:49.299Z,51.26
2022-10-28T12:41:21.838Z,51.19
2022-10-28T12:44:11.384Z,51.52
2022-10-28T12:49:24.283Z,51.38
2022-10-28T12:51:52.429Z,51.16
2022-10-28T12:54:29.038Z,51.61
2022-10-28T12:57:16.090Z,52.09
2022-10-28T13:02:53.651Z,51.61
2022-10-28T13:05:44.248Z,51.39
2022-10-28T13:08:52.090Z,51.50
2022-10-28T13:11:29.094Z,51.27
2022-10-28T13:17:24.805Z,52.18
2022-10-28T13:20:29.612Z,52.36
2022-10-28T13:23:24.675Z,52.34
2022-10-28T13:29:08.657Z,52.69
2022-10-28T13:31:43.994Z,52.74
2022-10-28T13:34:18.070Z,52.78
2022-10-28T13:39:38.627Z,53.09
2022-10-28T13:42:18.281Z,53.32
2022-10-28T13:44:49.393Z,53.54
2022-10-28T13:47:35.558Z,53.77
2022-10-28T13:50:14.101Z,53.91
2022-10-28T13:52:46.144Z,53.92
2022-10-28T13:55:26.221Z,53.81
2022-10-28T13:58:07.345Z,54.44
2022-10-28T14:00:37.915Z,53.96
2022-10-28T14:03:28.120Z,53.71
2022-10-28T14:06:01.826Z,54.61
2022-10-28T14:08:33.711Z,54.64
2022-10-28T14:11:06.962Z,55.31
2022-10-28T14:13:50.928Z,55.31
2022-10-28T14:16:31.256Z,55.56
2022-10-28T14:19:16.785Z,55.35
2022-10-28T14:22:03.986Z,55.62
2022-10-28T14:27:40.587Z,56.48
2022-10-28T14:30:23.235Z,56.35
2022-10-28T14:32:51.019Z,57.26
2022-10-28T14:35:24.588Z,57.42
2022-10-28T14:38:20.522Z,57.73
2022-10-28T14:41:11.874Z,58.22
2022-10-28T14:43:53.570Z,58.42
2022-10-28T14:47:00.356Z,58.89
2022-10-28T14:49:31.436Z,58.88
2022-10-28T14:52:19.482Z,59.20
2022-10-28T14:55:02.772Z,59.42
2022-10-28T14:57:34.987Z,60.22
2022-10-28T15:00:06.094Z,60.03
2022-10-28T15:02:35.583Z,61.04
2022-10-28T15:05:14.047Z,60.81
2022-10-28T15:07:42.221Z,60.86
2022-10-28T15:10:44.538Z,61.50
2022-10-28T15:13:22.178Z,61.85
2022-10-28T15:15:52.469Z,62.90
2022-10-28T15:18:25.170Z,63.24
2022-10-28T15:21:15.415Z,63.83
2022-10-28T15:23:42.377Z,63.58
2022-10-28T15:26:16.873Z,63.88
2022-10-28T15:28:44.013Z,64.61
2022-10-28T15:31:11.243Z,64.55
2022-10-28T15:33:43.031Z,64.94
2022-10-28T15:36:31.162Z,65.02
2022-10-28T15:39:20.345Z,65.32
2022-10-28T15:41:54.012Z,65.82
2022-10-28T15:44:31.583Z,65.62
2022-10-28T15:47:00.778Z,66.21
2022-10-28T15:49:40.862Z,66.26
2022-10-28T15:52:35.925Z,66.89
2022-10-28T15:55:35.823Z,66.79
2022-10-28T15:58:18.129Z,67.37
2022-10-28T16:00:54.378Z,67.96
2022-10-28T16:06:00.880Z,68.25
2022-10-28T16:08:31.094Z,68.92
2022-10-28T16:11:06.919Z,69.47
2022-10-28T16:13:42.181Z,69.17
2022-10-28T16:16:16.139Z,69.52
2022-10-28T16:18:49.927Z,70.04
2022-10-28T16:21:24.609Z,70.38
2022-10-28T16:23:59.313Z,70.74
2022-10-28T16:26:26.945Z,70.92
2022-10-28T16:28:54.542Z,71.70
2022-10-28T16:31:25.591Z,71.90
2022-10-28T16:33:53.235Z,71.70
2022-10-28T16:36:20.835Z,72.13
2022-10-28T16:38:48.814Z,72.27
2022-10-28T16:41:20.043Z,72.90
2022-10-28T16:43:47.641Z,72.93
2022-10-28T16:46:28.756Z,72.97
2022-10-28T16:49:04.536Z,73.14
2022-10-28T16:51:32.407Z,73.46
2022-10-28T16:54:01.013Z,73.76
2022-10-28T16:56:28.519Z,73.86
2022-10-28T16:58:56.171Z,73.78
2022-10-28T17:01:27.873Z,74.20
2022-10-28T17:03:55.573Z,75.30
2022-10-28T17:06:22.828Z,74.90
2022-10-28T17:09:02.521Z,74.63
2022-10-28T17:13:58.178Z,74.96
2022-10-28T17:16:28.619Z,75.35
2022-10-28T17:18:58.601Z,75.69
2022-10-28T17:21:26.942Z,75.50
2022-10-28T17:24:17.574Z,75.69
2022-10-28T17:26:55.837Z,76.00
2022-10-28T17:29:25.023Z,76.36
2022-10-28T17:31:52.416Z,76.22
2022-10-28T17:34:20.278Z,76.74
2022-10-28T17:36:47.450Z,76.85
2022-10-28T17:39:18.656Z,77.19
2022-10-28T17:41:48.794Z,77.77
2022-10-28T17:44:18.165Z,77.90
2022-10-28T17:46:45.831Z,78.11
2022-10-28T17:49:14.349Z,77.76
2022-10-28T17:51:41.456Z,77.90
2022-10-28T17:54:09.001Z,77.71
2022-10-28T17:56:37.651Z,78.02
2022-10-28T17:59:06.228Z,78.38
2022-10-28T18:01:35.184Z,78.36
2022-10-28T18:04:10.646Z,78.96
2022-10-28T18:06:39.157Z,78.90
2022-10-28T18:11:52.793Z,79.29
2022-10-28T18:14:20.784Z,78.99
2022-10-28T18:16:50.328Z,79.23
2022-10-28T18:19:20.316Z,79.28
2022-10-28T18:21:48.956Z,79.72
2022-10-28T18:24:17.052Z,79.40
2022-10-28T18:26:46.133Z,80.21
2022-10-28T18:29:16.146Z,80.03
2022-10-28T18:31:45.445Z,80.78
2022-10-28T18:34:14.048Z,81.06
2022-10-28T18:36:44.309Z,80.79
2022-10-28T18:39:11.812Z,80.82
2022-10-28T18:41:42.012Z,81.25
2022-10-28T18:44:14.492Z,81.24
2022-10-28T18:46:42.299Z,82.06
2022-10-28T18:49:09.279Z,81.82
2022-10-28T18:51:37.043Z,82.11
2022-10-28T18:54:04.285Z,82.15
2022-10-28T18:56:32.194Z,81.83
2022-10-28T18:59:07.079Z,82.22
2022-10-28T19:01:34.393Z,82.17
2022-10-28T19:04:05.315Z,82.34
2022-10-28T19:06:33.534Z,82.06
2022-10-28T19:09:02.640Z,82.52
2022-10-28T19:11:31.425Z,82.34
2022-10-28T19:14:01.936Z,82.38
2022-10-28T19:16:33.387Z,82.25
2022-10-28T19:19:02.643Z,82.21
2022-10-28T19:21:31.121Z,82.44
2022-10-28T19:23:58.376Z,82.40
2022-10-28T19:26:26.564Z,82.34
2022-10-28T19:28:54.342Z,82.53
2022-10-28T19:31:26.865Z,83.01
2022-10-28T19:33:55.053Z,82.84
2022-10-28T19:36:30.998Z,82.79
2022-10-28T19:38:58.640Z,83.23
2022-10-28T19:41:29.366Z,83.80
2022-10-28T19:44:02.150Z,83.95
2022-10-28T19:46:32.538Z,83.78
2022-10-28T19:49:00.513Z,83.78
2022-10-28T19:51:34.219Z,84.02
2022-10-28T19:54:08.870Z,84.15
2022-10-28T19:56:39.865Z,84.14
2022-10-28T19:59:10.503Z,84.13
2022-10-28T20:01:42.812Z,83.88
2022-10-28T20:04:13.330Z,83.86
2022-10-28T20:06:41.606Z,83.75
2022-10-28T20:09:11.173Z,84.25
2022-10-28T20:11:43.934Z,84.50
2022-10-28T20:14:15.293Z,84.30
2022-10-28T20:16:48.938Z,84.54
2022-10-28T20:19:15.908Z,84.55
2022-10-28T20:21:45.760Z,85.18
2022-10-28T20:24:16.152Z,84.83
2022-10-28T20:26:43.249Z,85.08
2022-10-28T20:29:21.416Z,85.14
2022-10-28T20:31:52.870Z,85.33
2022-10-28T20:34:20.114Z,85.21
2022-10-28T20:36:47.105Z,85.09
2022-10-28T20:39:19.392Z,85.46
2022-10-28T20:41:48.006Z,85.29
2022-10-28T20:44:15.706Z,85.73
2022-10-28T20:46:45.047Z,85.77
2022-10-28T20:49:13.371Z,86.00
2022-10-28T20:51:42.511Z,86.29
2022-10-28T20:54:09.978Z,86.11
2022-10-28T20:56:40.597Z,85.74
2022-10-28T20:59:08.300Z,85.76
2022-10-28T21:01:38.341Z,85.78
2022-10-28T21:04:09.298Z,86.16
2022-10-28T21:06:37.139Z,85.44
2022-10-28T21:09:05.399Z,85.56
2022-10-28T21:11:32.657Z,85.49
2022-10-28T21:14:01.676Z,85.81
2022-10-28T21:16:30.305Z,85.87
2022-10-28T21:18:59.273Z,85.87
2022-10-28T21:33:12.278Z,87.26
2022-10-28T21:35:39.805Z,86.36
2022-10-28T21:38:06.951Z,86.18
2022-10-28T21:40:34.261Z,86.05
2022-10-28T21:43:01.248Z,86.00
2022-10-28T21:45:29.532Z,86.21
2022-10-28T21:47:57.552Z,86.02
2022-10-28T21:50:25.051Z,85.93
2022-10-28T21:52:52.024Z,86.26
2022-10-28T21:55:33.871Z,86.61
2022-10-28T21:58:06.456Z,86.93
2022-10-28T22:00:33.698Z,87.36
2022-10-28T22:03:00.705Z,87.63
2022-10-28T22:05:27.825Z,87.91
2022-10-28T22:07:55.645Z,88.55
2022-10-28T22:10:23.904Z,87.86
2022-10-28T22:12:52.486Z,86.66
2022-10-28T22:15:19.519Z,86.25
2022-10-28T22:17:47.153Z,86.41
2022-10-28T22:20:15.216Z,86.57
2022-10-28T22:22:42.785Z,86.74
2022-10-28T22:25:10.599Z,86.69
2022-10-28T22:27:39.179Z,86.66
2022-10-28T22:30:07.983Z,86.57
2022-10-28T22:32:35.133Z,86.45
2022-10-28T22:35:03.737Z,86.79
2022-10-28T22:37:30.740Z,86.52
2022-10-28T22:39:57.779Z,86.75
2022-10-28T22:42:25.817Z,86.74
2022-10-28T22:44:52.825Z,86.67
2022-10-28T22:47:19.990Z,87.09
2022-10-28T22:49:46.978Z,87.88
2022-10-28T22:52:14.187Z,87.76
2022-10-28T22:54:41.192Z,87.47
2022-10-28T22:57:08.400Z,88.14
2022-10-28T22:59:38.106Z,87.79
2022-10-28T23:02:05.401Z,88.06
2022-10-28T23:04:32.820Z,87.82
2022-10-28T23:06:59.882Z,88.27
2022-10-28T23:09:27.028Z,88.32
2022-10-28T23:11:54.767Z,87.97
2022-10-28T23:14:21.749Z,88.58
2022-10-28T23:16:49.502Z,88.71
2022-10-28T23:19:16.510Z,88.49
2022-10-28T23:21:43.659Z,87.97
2022-10-28T23:24:11.254Z,87.57
2022-10-28T23:26:38.346Z,88.06
2022-10-28T23:29:05.354Z,88.09
2022-10-28T23:31:32.573Z,88.26
2022-10-28T23:34:00.395Z,87.90
2022-10-28T23:36:27.532Z,88.35
2022-10-28T23:38:56.670Z,88.25
2022-10-28T23:41:23.932Z,88.70
2022-10-28T23:43:50.980Z,88.84
2022-10-28T23:46:18.837Z,88.35
2022-10-28T23:48:45.836Z,88.69
2022-10-28T23:51:12.976Z,88.37
2022-10-28T23:53:40.832Z,87.84
2022-10-28T23:56:07.825Z,87.15
2022-10-28T23:58:34.804Z,86.21
